Latest Weather Observations for Mount Gambier

IDS60801

Issued at 1:02 am CDT Saturday 25 February 2017 (issued every 30 minutes, with the page automatically refreshed every 10 minutes)

About weather observations | Map of weather stations | Latest weather observations for SA | Other Formats
Station Details ID: 026021 Name: MOUNT GAMBIER AERO Lat: -37.75 Lon: 140.77 Height: 63.0 m
Data from the previous 72 hours. | See also: Recent months at Mount Gambier
Date/Time
CDT
Temp
°C
App
Temp
°C
Dew
Point
°C
Rel
Hum
%
Delta-T
°C
Wind Press
QNH
hPa
Press
MSL
hPa
Rain since
9am
mm
Dir  Spd
km/h
Gust
km/h
Spd
kts
Gust
kts
25/01:00am 12.4 10.4 10.3 87 1.1 S 11 13 6 7 1026.8 1026.6 0.0
25/12:30am 12.8 11.3 10.7 87 1.1 S 9 9 5 5 1027.0 1026.8 0.0
25/12:00am 11.8 9.9 10.4 91 0.7 S 11 13 6 7 1027.2 1027.0 0.0
 
Date/Time
CDT
Temp
°C
App
Temp
°C
Dew
Point
°C
Rel
Hum
%
Delta-T
°C
Wind Press
QNH
hPa
Press
MSL
hPa
Rain since
9am
mm
Dir  Spd
km/h
Gust
km/h
Spd
kts
Gust
kts
24/11:30pm 10.9 9.0 9.0 88 0.9 S 9 11 5 6 1027.3 1027.1 0.0
24/11:00pm 11.4 9.6 9.3 87 1.1 S 9 11 5 6 1027.3 1027.1 0.0
24/10:30pm 11.6 9.4 9.5 87 1.1 S 11 13 6 7 1027.5 1027.3 0.0
24/10:00pm 11.8 10.0 9.4 85 1.2 SSE 9 11 5 6 1027.4 1027.2 0.0
24/09:30pm 12.5 10.4 9.9 84 1.3 S 11 11 6 6 1027.4 1027.2 0.0
24/09:00pm 12.8 10.6 9.3 79 1.8 SSE 11 11 6 6 1027.2 1027.0 0.0
24/08:30pm 13.6 11.4 9.5 76 2.1 SSE 11 15 6 8 1027.0 1026.8 0.0
24/08:00pm 14.7 11.4 9.5 71 2.7 S 17 24 9 13 1026.9 1026.7 0.0
24/07:30pm 15.8 11.1 9.2 65 3.4 S 24 30 13 16 1026.7 1026.5 0.0
24/07:00pm 17.4 14.2 9.8 61 4.0 SSE 17 24 9 13 1026.4 1026.2 0.0
24/06:30pm 17.7 12.9 8.8 56 4.6 S 24 32 13 17 1026.2 1026.0 0.0
24/06:00pm 17.9 14.0 9.3 57 4.5 S 20 30 11 16 1026.2 1026.0 0.0
24/05:30pm 18.5 14.7 9.8 57 4.6 S 20 32 11 17 1026.2 1026.0 0.0
24/05:00pm 18.3 13.6 9.1 55 4.8 SSW 24 30 13 16 1026.1 1025.9 0.0
24/04:30pm 18.8 13.6 9.0 53 5.1 SSW 26 33 14 18 1026.1 1025.9 0.0
24/04:00pm 17.8 12.8 9.7 59 4.3 SSW 26 32 14 17 1026.3 1026.1 0.0
24/03:30pm 19.2 13.7 9.1 52 5.3 S 28 35 15 19 1026.3 1026.1 0.0
24/03:00pm 20.0 14.7 8.4 47 6.0 SSW 26 37 14 20 1026.4 1026.2 0.0
24/02:30pm 19.9 14.8 7.6 45 6.3 S 24 37 13 20 1026.5 1026.3 0.0
24/02:00pm 19.4 15.0 9.0 51 5.5 S 22 32 12 17 1026.7 1026.5 0.0
24/01:30pm 18.7 13.0 8.4 51 5.3 SSW 28 37 15 20 1026.8 1026.6 0.0
24/01:00pm 18.5 13.9 9.6 56 4.7 SSW 24 32 13 17 1026.9 1026.7 0.0
24/12:30pm 18.2 13.4 8.7 54 4.9 SSW 24 32 13 17 1027.1 1026.9 0.0
24/12:00pm 18.3 14.2 8.8 54 4.9 S 20 26 11 14 1027.3 1027.1 0.0
24/11:30am 18.4 14.2 8.4 52 5.1 SSW 20 28 11 15 1027.4 1027.2 0.0
24/11:00am 18.0 13.2 8.8 55 4.8 SSW 24 33 13 18 1027.3 1027.1 0.0
24/10:30am 17.1 12.2 8.3 56 4.5 SSW 24 33 13 18 1027.3 1027.1 0.0
24/10:00am 17.2 13.0 8.1 55 4.6 SW 20 28 11 15 1027.1 1026.9 0.0
24/09:30am 16.7 11.8 8.4 58 4.2 SW 24 32 13 17 1027.0 1026.8 0.0
24/09:00am 16.1 13.3 10.0 67 3.2 SW 15 22 8 12 1026.6 1026.4 0.0
24/08:30am 15.4 13.1 9.1 66 3.2 SW 11 15 6 8 1026.3 1026.1 0.0
24/08:00am 14.6 13.1 9.2 70 2.8 S 7 13 4 7 1026.1 1025.9 0.0
24/07:30am 14.3 12.8 9.1 71 2.6 SSW 7 7 4 4 1025.7 1025.6 0.0
24/07:00am 13.9 12.2 8.5 70 2.7 SW 7 9 4 5 1025.4 1025.3 0.0
24/06:30am 13.9 12.1 8.1 68 2.9 SSW 7 9 4 5 1025.0 1024.9 0.0
24/06:00am 13.8 11.6 8.0 68 2.9 S 9 11 5 6 1024.8 1024.7 0.0
24/05:30am 14.2 11.9 7.5 64 3.3 S 9 11 5 6 1024.5 1024.4 0.0
24/05:00am 13.8 11.5 7.6 66 3.1 SW 9 11 5 6 1024.5 1024.4 0.0
24/04:30am 13.7 10.7 7.5 66 3.0 SSW 13 17 7 9 1024.2 1024.1 0.0
24/04:00am 13.9 11.3 7.9 67 3.0 SW 11 15 6 8 1024.3 1024.2 0.0
24/03:30am 13.6 11.1 8.2 70 2.7 SW 11 15 6 8 1024.4 1024.3 0.0
24/03:00am 13.3 11.1 8.0 70 2.6 SSW 9 13 5 7 1024.2 1024.1 0.0
24/02:30am 12.9 11.1 8.0 72 2.4 WSW 7 7 4 4 1024.1 1024.0 0.0
24/02:00am 13.1 11.2 7.5 69 2.7 SW 7 9 4 5 1024.3 1024.2 0.0
24/01:30am 13.2 11.0 7.9 70 2.6 SW 9 11 5 6 1024.4 1024.3 0.0
24/01:00am 13.7 11.2 8.3 70 2.7 SSW 11 13 6 7 1024.5 1024.4 0.0
24/12:30am 14.1 12.1 8.5 69 2.8 SSW 9 11 5 6 1024.8 1024.7 0.0
24/12:00am 14.3 12.0 9.1 71 2.6 SSW 11 13 6 7 1024.9 1024.8 0.0
 
Date/Time
CDT
Temp
°C
App
Temp
°C
Dew
Point
°C
Rel
Hum
%
Delta-T
°C
Wind Press
QNH
hPa
Press
MSL
hPa
Rain since
9am
mm
Dir  Spd
km/h
Gust
km/h
Spd
kts
Gust
kts
23/11:30pm 14.4 12.6 9.4 72 2.6 SW 9 13 5 7 1024.8 1024.7 0.0
23/11:00pm 14.4 12.6 9.6 73 2.5 WSW 9 11 5 6 1024.7 1024.6 0.0
23/10:30pm 14.5 12.8 9.7 73 2.5 SSW 9 11 5 6 1024.6 1024.5 0.0
23/10:00pm 14.7 13.0 9.7 72 2.6 SW 9 13 5 7 1024.5 1024.4 0.0
23/09:30pm 14.6 12.9 9.8 73 2.5 SSW 9 11 5 6 1024.3 1024.2 0.0
23/09:00pm 14.9 12.8 9.9 72 2.6 SW 11 15 6 8 1023.8 1023.7 0.0
23/08:30pm 15.1 12.7 10.1 72 2.6 SW 13 17 7 9 1023.5 1023.4 0.0
23/08:00pm 15.4 12.3 10.2 71 2.7 SW 17 22 9 12 1023.0 1022.9 0.0
23/07:30pm 15.8 12.4 10.6 71 2.8 SW 19 26 10 14 1022.5 1022.4 0.0
23/07:00pm 16.3 13.5 11.2 72 2.7 SW 17 22 9 12 1022.2 1022.1 0.0
23/06:30pm 16.7 13.5 11.2 70 3.0 SW 19 28 10 15 1021.9 1021.8 0.0
23/06:00pm 17.0 13.9 11.7 71 2.9 SW 19 26 10 14 1021.8 1021.7 0.0
23/05:30pm 17.5 14.4 11.5 68 3.3 WSW 19 28 10 15 1021.5 1021.4 0.0
23/05:00pm 17.6 14.1 12.1 70 3.0 WSW 22 30 12 16 1021.2 1021.1 0.0
23/04:30pm 17.0 13.5 12.3 74 2.6 WSW 22 30 12 16 1021.0 1020.9 0.0
23/04:00pm 17.2 14.1 12.3 73 2.7 WSW 20 30 11 16 1020.9 1020.8 0.0
23/03:30pm 18.0 15.5 13.5 75 2.5 SW 19 26 10 14 1020.8 1020.7 0.0
23/03:00pm 17.3 13.9 13.8 80 2.0 SW 24 30 13 16 1020.9 1020.8 0.0
23/02:30pm 18.2 15.5 13.5 74 2.7 WSW 20 28 11 15 1020.5 1020.4 0.0
23/02:00pm 17.5 14.7 13.2 76 2.4 WSW 20 26 11 14 1020.5 1020.4 0.0
23/01:30pm 16.5 13.5 13.8 84 1.5 WSW 22 28 12 15 1020.4 1020.3 0.0
23/01:00pm 17.4 15.5 12.9 75 2.5 WSW 15 20 8 11 1020.0 1019.9 0.0
23/12:30pm 17.7 15.7 13.8 78 2.2 WSW 17 22 9 12 1020.1 1020.0 0.0
23/12:21pm 17.2 15.0 13.3 78 2.2 WSW 17 22 9 12 1020.1 1020.0 0.0
23/12:10pm 16.9 14.2 13.4 80 2.0 WSW 20 28 11 15 1020.1 1020.0 0.0
23/12:00pm 16.9 14.3 13.8 82 1.8 W 20 28 11 15 1020.1 1020.0 0.0
23/11:30am 17.9 15.4 13.6 76 2.4 SW 19 30 10 16 1019.9 1019.8 0.0
23/11:18am 17.2 14.4 13.3 78 2.2 WSW 20 30 11 16 1020.0 1019.9 0.0
23/11:16am 17.3 15.0 14.6 84 1.6 WSW 20 30 11 16 1020.0 1019.9 0.0
23/11:00am 15.4 12.0 13.6 89 1.0 W 24 33 13 18 1019.9 1019.8 0.0
23/10:58am 15.4 12.2 13.1 86 1.3 W 22 32 12 17 1019.8 1019.7 0.0
23/10:30am 17.0 13.6 13.7 81 1.9 WSW 24 30 13 16 1019.4 1019.3 0.0
23/10:29am 17.3 14.3 13.6 79 2.1 WSW 22 28 12 15 1019.3 1019.2 0.0
23/10:28am 17.5 14.5 13.6 78 2.2 WSW 22 28 12 15 1019.3 1019.2 0.0
23/10:09am 16.6 14.5 13.7 83 1.6 WSW 17 26 9 14 1019.1 1019.0 0.0
23/10:07am 16.5 14.1 13.8 84 1.5 WSW 19 26 10 14 1019.1 1019.0 0.0
23/10:00am 16.0 12.5 13.5 85 1.4 SW 24 37 13 20 1019.0 1018.9 0.0
23/09:54am 15.8 11.5 13.1 84 1.5 SW 28 37 15 20 1018.8 1018.6 0.0
23/09:30am 16.9 13.3 13.2 79 2.1 WSW 24 33 13 18 1018.3 1018.1 0.0
23/09:00am 16.3 13.3 13.8 85 1.4 SW 22 32 12 17 1017.9 1017.7 0.0
23/08:59am 16.4 13.3 13.5 83 1.6 SW 22 32 12 17 1017.8 1017.6 0.0
23/08:30am 16.7 13.3 13.8 83 1.6 WSW 24 33 13 18 1017.7 1017.5 0.0
23/08:00am 15.9 11.8 13.7 87 1.2 W 28 33 15 18 1017.4 1017.2 0.0
23/07:30am 15.8 12.7 13.5 86 1.3 W 22 32 12 17 1016.8 1016.6 0.0
23/07:00am 15.5 12.7 13.3 87 1.2 W 20 30 11 16 1016.2 1016.0 0.0
23/06:30am 15.7 11.5 13.4 86 1.3 W 28 35 15 19 1015.6 1015.4 0.0
23/06:15am 15.9 11.8 13.7 87 1.2 W 28 37 15 20 1015.3 1015.1 0.0
23/06:00am 16.2 11.2 13.5 84 1.5 W 32 43 17 23 1014.7 1014.5 0.0
23/05:51am 16.1 11.1 13.4 84 1.5 W 32 41 17 22 1014.6 1014.4 0.0
23/05:30am 15.9 11.7 13.6 86 1.3 WNW 28 37 15 20 1014.6 1014.4 0.0
23/05:00am 15.9 11.1 13.9 88 1.1 WNW 32 41 17 22 1014.1 1013.9 0.0
23/04:30am 16.0 11.2 14.0 88 1.1 WNW 32 41 17 22 1013.8 1013.6 0.0
23/04:00am 16.2 11.3 14.2 88 1.1 WNW 33 48 18 26 1013.4 1013.2 0.0
23/03:30am 16.4 12.0 14.2 87 1.3 WNW 30 41 16 22 1013.1 1012.9 0.0
23/03:00am 16.5 11.6 14.2 86 1.3 WNW 33 44 18 24 1012.8 1012.6 0.0
23/02:47am 16.4 12.3 13.9 85 1.4 WNW 28 50 15 27 1012.7 1012.5 0.0
23/02:46am 16.4 12.4 14.1 86 1.3 WNW 28 41 15 22 1012.8 1012.6 0.0
23/02:30am 16.9 11.9 14.0 83 1.7 WNW 33 46 18 25 1012.6 1012.4 0.0
23/02:00am 16.6 12.0 13.5 82 1.7 WNW 30 44 16 24 1012.6 1012.4 0.0
23/01:30am 16.5 11.9 13.4 82 1.7 WNW 30 41 16 22 1012.4 1012.2 0.0
23/01:08am 16.7 11.5 13.4 81 1.9 NW 33 52 18 28 1012.4 1012.2 0.0
23/01:00am 16.7 11.1 13.4 81 1.9 NW 35 48 19 26 1012.4 1012.2 0.0
23/12:37am 17.1 11.1 13.2 78 2.2 NW 37 56 20 30 1012.4 1012.2 0.0
23/12:30am 17.3 11.3 13.4 78 2.2 NW 37 54 20 29 1012.3 1012.1 0.0
23/12:03am 17.5 11.0 13.0 75 2.5 WNW 39 57 21 31 1012.1 1011.9 0.0
23/12:00am 17.5 11.5 13.2 76 2.4 WNW 37 50 20 27 1012.2 1012.0 0.0
 
Date/Time
CDT
Temp
°C
App
Temp
°C
Dew
Point
°C
Rel
Hum
%
Delta-T
°C
Wind Press
QNH
hPa
Press
MSL
hPa
Rain since
9am
mm
Dir  Spd
km/h
Gust
km/h
Spd
kts
Gust
kts
22/11:30pm 17.8 11.7 13.1 74 2.6 NW 37 56 20 30 1012.1 1011.9 0.0
22/11:25pm 17.9 12.6 13.0 73 2.8 NW 33 56 18 30 1012.0 1011.8 0.0
22/11:00pm 17.9 11.2 12.4 70 3.1 NW 39 52 21 28 1011.9 1011.7 0.0
22/10:38pm 18.0 13.0 12.2 69 3.2 NW 30 48 16 26 1011.9 1011.7 0.0
22/10:30pm 18.3 13.0 12.5 69 3.2 NW 32 43 17 23 1011.9 1011.7 0.0
22/10:00pm 18.7 12.3 12.0 65 3.7 NW 37 61 20 33 1011.6 1011.4 0.0
22/09:31pm 19.1 12.7 11.9 63 4.0 NW 37 56 20 30 1011.3 1011.1 0.0
22/09:30pm 19.1 13.0 11.7 62 4.1 NW 35 52 19 28 1011.3 1011.1 0.0
22/09:12pm 19.5 13.7 11.5 60 4.4 NW 33 52 18 28 1011.0 1010.8 0.0
22/09:00pm 19.8 13.6 11.3 58 4.7 NW 35 52 19 28 1010.9 1010.7 0.0
22/08:30pm 19.6 14.0 10.3 55 5.0 NW 30 48 16 26 1010.1 1010.0 0.0
22/08:00pm 20.2 12.8 9.7 51 5.6 NW 39 61 21 33 1009.7 1009.6 0.0
22/07:31pm 20.7 13.2 9.6 49 6.0 NW 39 57 21 31 1009.3 1009.2 0.0
22/07:30pm 20.7 12.9 9.6 49 6.0 NW 41 57 22 31 1009.2 1009.1 0.0
22/07:13pm 21.1 15.1 10.0 49 6.0 NW 32 50 17 27 1008.8 1008.7 0.0
22/07:00pm 21.3 13.0 9.5 47 6.3 NW 43 56 23 30 1008.6 1008.5 0.0
22/06:30pm 22.1 14.7 9.9 46 6.6 NW 39 54 21 29 1008.6 1008.5 0.0
22/06:10pm 22.3 15.8 11.7 51 6.0 NW 37 56 20 30 1008.6 1008.5 0.0
22/06:00pm 22.5 15.7 11.9 51 6.0 WNW 39 54 21 29 1008.5 1008.4 0.0
22/05:35pm 22.7 17.1 10.2 45 6.9 WNW 30 50 16 27 1008.2 1008.1 0.0
22/05:30pm 22.7 17.2 10.5 46 6.7 WNW 30 41 16 22 1008.1 1008.0 0.0
22/05:00pm 22.8 14.8 11.2 48 6.5 WNW 44 59 24 32 1007.9 1007.8 0.0
22/04:34pm 22.1 15.8 11.2 50 6.1 WNW 35 54 19 29 1007.9 1007.8 0.0
22/04:30pm 22.1 15.8 10.9 49 6.2 WNW 35 48 19 26 1007.8 1007.7 0.0
22/04:09pm 22.7 16.7 10.8 47 6.6 WNW 33 54 18 29 1007.4 1007.3 0.0
22/04:00pm 23.0 16.5 10.4 45 6.9 WNW 35 46 19 25 1007.2 1007.1 0.0
22/03:40pm 23.7 16.7 10.0 42 7.5 WNW 37 56 20 30 1007.0 1006.9 0.0
22/03:30pm 24.7 17.1 10.6 41 7.9 WNW 41 56 22 30 1006.9 1006.8 0.0
22/03:00pm 26.2 19.3 11.5 40 8.4 W 39 50 21 27 1006.5 1006.4 0.0
22/02:42pm 28.1 19.5 10.3 33 10.0 NW 46 70 25 38 1006.1 1005.9 0.0
22/02:30pm 30.9 20.8 3.8 18 14.0 NW 46 80 25 43 1005.8 1005.6 0.0
22/02:08pm 31.1 21.3 3.2 17 14.2 NW 44 63 24 34 1005.9 1005.7 0.0
22/02:00pm 31.7 21.4 2.8 16 14.7 NW 46 63 25 34 1005.9 1005.7 0.0
22/01:33pm 32.4 22.3 1.5 14 15.4 NNW 44 65 24 35 1006.0 1005.8 0.0
22/01:30pm 33.0 23.2 2.0 14 15.7 NNW 43 59 23 32 1005.9 1005.7 0.0
22/01:00pm 32.8 23.7 1.8 14 15.6 NNW 39 61 21 33 1006.5 1006.4 0.0
22/12:30pm 31.7 22.1 1.0 14 15.2 N 41 59 22 32 1006.9 1006.8 0.0
22/12:00pm 31.2 21.5 0.6 14 15.0 N 41 69 22 37 1007.3 1007.2 0.0
22/11:32am 29.9 20.7 1.4 16 14.0 N 39 57 21 31 1007.8 1007.7 0.0
22/11:30am 29.8 20.5 0.4 15 14.2 N 39 52 21 28 1007.8 1007.7 0.0
22/11:08am 28.9 20.2 2.2 18 13.2 N 37 59 20 32 1008.3 1008.2 0.0
22/11:00am 27.8 19.2 0.5 17 13.0 N 35 52 19 28 1008.5 1008.4 0.0
22/10:30am 27.8 20.2 2.8 20 12.4 N 32 50 17 27 1008.6 1008.5 0.0
22/10:13am 25.5 17.4 3.5 24 10.9 NNE 35 54 19 29 1008.6 1008.5 0.0
22/10:00am 25.3 16.8 3.3 24 10.8 NNE 37 50 20 27 1008.4 1008.3 0.0
22/09:30am 23.0 15.0 4.0 29 9.3 NNE 35 46 19 25 1009.1 1009.0 0.0
22/09:00am 21.3 14.7 4.0 32 8.4 NNE 28 35 15 19 1009.5 1009.4 0.0
22/08:30am 20.0 12.9 3.7 34 7.8 NNE 30 37 16 20 1009.9 1009.8 0.0
22/08:00am 19.0 13.1 4.0 37 7.1 NE 24 32 13 17 1010.3 1010.2 0.0
22/07:30am 17.4 14.0 4.0 41 6.3 NNE 11 15 6 8 1010.6 1010.5 0.0
22/07:00am 16.5 11.4 3.2 41 6.1 NNE 19 26 10 14 1010.5 1010.4 0.0
22/06:30am 16.5 11.4 3.2 41 6.1 NNE 19 24 10 13 1010.1 1010.0 0.0
22/06:00am 16.2 11.5 2.9 41 6.1 NNE 17 19 9 10 1010.2 1010.1 0.0
22/05:30am 15.8 10.7 2.9 42 5.9 NE 19 20 10 11 1010.4 1010.3 0.0
22/05:00am 15.7 11.3 2.5 41 5.9 NNE 15 17 8 9 1010.6 1010.5 0.0
22/04:30am 16.1 11.3 2.5 40 6.1 NE 17 19 9 10 1010.8 1010.6 0.0
22/04:00am 16.7 11.9 2.7 39 6.4 NE 17 19 9 10 1010.9 1010.7 0.0
22/03:30am 16.3 12.0 3.0 41 6.1 NE 15 17 8 9 1011.1 1010.9 0.0
22/03:00am 16.1 12.3 3.9 44 5.7 NE 13 15 7 8 1011.5 1011.3 0.0
22/02:30am 16.1 11.9 3.9 44 5.7 NE 15 19 8 10 1011.8 1011.6 0.0
22/02:00am 14.8 11.4 6.1 56 4.2 NE 13 15 7 8 1012.2 1012.0 0.0
22/01:30am 13.4 10.7 7.4 67 2.9 ENE 11 13 6 7 1012.9 1012.7 0.0

Other Formats:

Comma delimited format used in spreadsheet applications
http://www.bom.gov.au/fwo/IDS60801/IDS60801.94821.axf

JavaScript Object Notation format (JSON) in row-major order
http://www.bom.gov.au/fwo/IDS60801/IDS60801.94821.json